الصفحة الرئيسية
METAR-TAF:

METAR-TAF

مطار :

سالونيك, اليونان

دائرة عرض: 40-31N, خط طول: 022-58E, ارتفاع: 8 متر

مراقبة الطقس الحالي

تاريخ ووقت الإصدار 19 دقيقة قبل الساعة 07:50UTC
ريح 3 عقدةمن اتجاهات متغيرة
درجة الحرارة 12°درجة مئوية
الرطوبة 62%
ضغط 1026 hPa
الرؤية 10 كم أو أكثر
الغيوم لا تقل 1500 م ولا وجود لمزنة ركامية السحاب الأسود

METAR: LGTS 110750Z VRB03KT CAVOK 12/05 Q1026 NOSIG

زمن: 11:09 (08:09 UTC)

توقعات

تاريخ ووقت الإصدار 3ساعات و 9 دقيقة قبل الساعة 05:00UTC
التوقعات صالحة من11 الساعة 06 UTC إلى 12 الساعة 06 UTC
ريح 3 عقدةمن اتجاهات متغيرة
الرؤية 10 كم أو أكثر
غيوم قليلة على ارتفاع 2500 قدم
أصبح
من 11 الساعة 12 UTC إلى 11 الساعة 14 UTC
ريح 12 عقدة من الجنوب/الجنوب الشرقي
أصبح
من 11 الساعة 20 UTC إلى 11 الساعة 22 UTC
ريح 3 عقدةمن اتجاهات متغيرة

TAF: LGTS 110500Z 1106/1206 VRB03KT 9999 FEW025 BECMG 1112/1114 16012KT BECMG 1120/1122 VRB03KT

أرصاد الطقس والتوقعات من أكثر من 4000 مطار (تقارير الطقس للمطار METAR والتنبؤ بالطقس بالمطارTAF).

المحطات المتاحة هي النقط الصفراء والحمراء على الخريطة.

حرك المؤشر فوق النقطة لمعرفة اسم المحطة.

ثم انقر لمعرفة أرصاد وتوقعات الطقس.

لتغيير الخارطة: اضغط على الأزرار الخضراء مع رمز الصليب الأسود للتكبير. على الزر الأخضر مع شرطة للتصغير، أو على الأسهم الخضراء للخرائط المجاورة.


METAR-TAF: